createdAt,value
2019-05-07T00:01:51.648Z,4.40
2019-05-07T00:04:22.479Z,5.57
2019-05-07T00:06:52.795Z,4.97
2019-05-07T00:09:23.492Z,7.43
2019-05-07T00:11:53.510Z,5.13
2019-05-07T00:14:24.953Z,7.80
2019-05-07T00:16:54.560Z,10.97
2019-05-07T00:19:24.023Z,7.13
2019-05-07T00:21:54.003Z,5.90
2019-05-07T00:24:23.520Z,4.80
2019-05-07T00:26:54.324Z,4.73
2019-05-07T00:29:24.139Z,3.43
2019-05-07T00:31:53.743Z,4.50
2019-05-07T00:34:24.881Z,6.20
2019-05-07T00:36:55.954Z,6.17
2019-05-07T00:39:27.013Z,6.43
2019-05-07T00:41:58.412Z,4.33
2019-05-07T00:44:28.843Z,10.97
2019-05-07T00:47:02.185Z,4.97
2019-05-07T00:49:33.084Z,6.27
2019-05-07T00:52:02.935Z,5.60
2019-05-07T00:54:33.516Z,4.97
2019-05-07T00:57:03.203Z,3.83
2019-05-07T00:59:32.764Z,4.23
2019-05-07T01:02:02.384Z,5.03
2019-05-07T01:04:33.124Z,4.67
2019-05-07T01:07:02.921Z,8.30
2019-05-07T01:09:32.523Z,6.03
2019-05-07T01:12:03.119Z,3.53
2019-05-07T01:14:32.770Z,4.60
2019-05-07T01:17:03.239Z,5.07
2019-05-07T01:19:32.976Z,4.50
2019-05-07T01:22:03.159Z,3.63
2019-05-07T01:24:34.124Z,5.53
2019-05-07T01:27:03.733Z,5.30
2019-05-07T01:29:34.327Z,4.87
2019-05-07T01:32:05.911Z,4.43
2019-05-07T01:34:37.154Z,3.23
2019-05-07T01:37:06.729Z,4.37
2019-05-07T01:39:36.371Z,4.63
2019-05-07T01:42:05.889Z,6.37
2019-05-07T01:44:35.282Z,4.23
2019-05-07T01:47:04.899Z,5.60
2019-05-07T01:49:34.477Z,3.53
2019-05-07T01:52:03.999Z,5.67
2019-05-07T01:54:33.658Z,5.07
2019-05-07T01:57:03.306Z,6.43
2019-05-07T01:59:32.721Z,6.70
2019-05-07T02:02:03.942Z,9.23
2019-05-07T02:04:35.125Z,6.50
2019-05-07T02:07:04.587Z,4.27
2019-05-07T02:09:35.725Z,3.27
2019-05-07T02:12:04.999Z,5.13
2019-05-07T02:14:34.436Z,5.40
2019-05-07T02:17:04.055Z,6.00
2019-05-07T02:19:33.565Z,5.67
2019-05-07T02:22:03.070Z,10.10
2019-05-07T02:24:34.048Z,4.13
2019-05-07T02:27:03.700Z,5.20
2019-05-07T02:29:33.185Z,3.97
2019-05-07T02:32:04.640Z,6.17
2019-05-07T02:34:34.492Z,5.47
2019-05-07T02:37:05.948Z,8.00
2019-05-07T02:39:37.247Z,7.47
2019-05-07T02:42:06.784Z,4.20
2019-05-07T02:44:38.232Z,4.53
2019-05-07T02:47:09.312Z,3.43
2019-05-07T02:49:43.600Z,3.90
2019-05-07T02:52:13.663Z,3.73
2019-05-07T02:54:44.950Z,9.83
2019-05-07T02:57:16.976Z,4.80
2019-05-07T02:59:45.702Z,3.77
2019-05-07T03:02:15.229Z,4.93
2019-05-07T03:04:44.886Z,6.10
2019-05-07T03:07:14.424Z,8.57
2019-05-07T03:09:44.223Z,6.73
2019-05-07T03:12:13.846Z,5.87
2019-05-07T03:14:43.922Z,6.83
2019-05-07T03:17:13.775Z,6.43
2019-05-07T03:19:45.952Z,6.03
2019-05-07T03:22:15.439Z,7.97
2019-05-07T03:24:46.738Z,7.33
2019-05-07T03:27:16.399Z,4.53
2019-05-07T03:29:47.750Z,7.33
2019-05-07T03:32:18.838Z,5.33
2019-05-07T03:34:51.152Z,5.57
2019-05-07T03:37:23.418Z,6.27
2019-05-07T03:39:53.874Z,4.53
2019-05-07T03:42:23.770Z,7.07
2019-05-07T03:44:55.120Z,9.67
2019-05-07T03:47:26.271Z,6.33
2019-05-07T03:49:55.757Z,6.57
2019-05-07T03:52:25.481Z,7.73
2019-05-07T03:54:55.078Z,7.73
2019-05-07T03:57:24.683Z,6.57
2019-05-07T03:59:54.095Z,5.60
2019-05-07T04:02:24.162Z,7.40
2019-05-07T04:04:53.929Z,3.60
2019-05-07T04:07:24.655Z,5.13
2019-05-07T04:09:55.529Z,7.00
2019-05-07T04:12:25.092Z,4.00
2019-05-07T04:14:54.537Z,4.90
2019-05-07T04:17:27.042Z,5.77
2019-05-07T04:19:55.240Z,5.67
2019-05-07T04:22:28.843Z,3.53
2019-05-07T04:24:56.100Z,8.97
2019-05-07T04:27:27.114Z,10.03
2019-05-07T04:29:56.518Z,4.20
2019-05-07T04:32:27.782Z,7.47
2019-05-07T04:34:57.088Z,7.77
2019-05-07T04:37:26.599Z,8.83
2019-05-07T04:39:56.165Z,10.70
2019-05-07T04:42:25.702Z,8.47
2019-05-07T04:45:04.159Z,6.57
2019-05-07T04:47:42.593Z,7.40
2019-05-07T04:50:08.574Z,8.67
2019-05-07T04:52:38.777Z,6.07
2019-05-07T04:55:08.812Z,8.63
2019-05-07T05:00:28.982Z,8.00
2019-05-07T05:03:03.133Z,6.70
2019-05-07T05:05:32.948Z,4.90
2019-05-07T05:08:03.983Z,7.53
2019-05-07T05:10:34.244Z,12.37
2019-05-07T05:13:04.094Z,6.90
2019-05-07T05:15:34.930Z,8.33
2019-05-07T05:18:04.457Z,5.43
2019-05-07T05:20:35.605Z,5.90
2019-05-07T05:23:06.811Z,9.50
2019-05-07T05:25:38.031Z,6.33
2019-05-07T05:28:07.467Z,7.73
2019-05-07T05:30:38.710Z,5.47
2019-05-07T05:33:08.321Z,12.00
2019-05-07T05:35:38.147Z,9.47
2019-05-07T05:38:07.765Z,7.33
2019-05-07T05:40:37.348Z,8.23
2019-05-07T05:43:08.688Z,10.30
2019-05-07T05:45:39.839Z,8.07
2019-05-07T05:48:09.344Z,7.50
2019-05-07T05:50:42.294Z,8.57
2019-05-07T05:53:13.583Z,9.33
2019-05-07T05:55:43.272Z,7.47
2019-05-07T05:58:14.427Z,7.90
2019-05-07T06:00:45.518Z,7.93
2019-05-07T06:03:16.674Z,7.10
2019-05-07T06:05:48.034Z,10.93
2019-05-07T06:08:19.168Z,9.03
2019-05-07T06:10:51.895Z,9.67
2019-05-07T06:13:23.332Z,5.77
2019-05-07T06:15:54.676Z,7.90
2019-05-07T06:18:25.771Z,5.63
2019-05-07T06:20:56.846Z,6.83
2019-05-07T06:23:27.878Z,7.70
2019-05-07T06:25:57.447Z,6.30
2019-05-07T06:28:28.139Z,11.67
2019-05-07T06:30:57.656Z,7.53
2019-05-07T06:33:27.236Z,6.00
2019-05-07T06:35:56.750Z,9.17
2019-05-07T06:38:28.064Z,4.87
2019-05-07T06:40:59.299Z,7.87
2019-05-07T06:43:32.532Z,6.10
2019-05-07T06:46:03.908Z,7.73
2019-05-07T06:48:41.826Z,5.77
2019-05-07T06:51:04.600Z,7.23
2019-05-07T06:53:34.244Z,5.80
2019-05-07T06:56:04.880Z,6.30
2019-05-07T06:58:36.241Z,9.33
2019-05-07T07:01:07.547Z,4.80
2019-05-07T07:03:38.931Z,3.47
2019-05-07T07:06:12.122Z,8.47
2019-05-07T07:08:43.257Z,8.37
2019-05-07T07:11:14.516Z,7.23
2019-05-07T07:13:44.143Z,5.37
2019-05-07T07:16:13.874Z,7.27
2019-05-07T07:18:52.091Z,5.00
2019-05-07T07:21:14.899Z,6.07
2019-05-07T07:23:44.403Z,5.17
2019-05-07T07:26:13.995Z,5.23
2019-05-07T07:28:43.614Z,8.33
2019-05-07T07:31:15.065Z,5.80
2019-05-07T07:33:46.284Z,7.70
2019-05-07T07:36:15.909Z,6.23
2019-05-07T07:38:45.502Z,9.03
2019-05-07T07:41:14.983Z,6.13
2019-05-07T07:43:44.370Z,8.30
2019-05-07T07:46:16.433Z,9.23
2019-05-07T07:48:45.163Z,3.90
2019-05-07T07:51:14.835Z,7.43
2019-05-07T07:53:44.375Z,4.80
2019-05-07T07:56:15.627Z,6.43
2019-05-07T07:58:46.759Z,8.23
2019-05-07T08:01:17.889Z,7.57
2019-05-07T08:03:47.449Z,8.27
2019-05-07T08:06:16.912Z,6.27
2019-05-07T08:08:46.519Z,5.43
2019-05-07T08:11:16.254Z,2.47
2019-05-07T08:13:47.829Z,3.90
2019-05-07T08:16:22.259Z,8.13
2019-05-07T08:18:52.213Z,9.33
2019-05-07T08:21:35.035Z,6.87
2019-05-07T08:24:04.624Z,6.50
2019-05-07T08:29:22.534Z,6.10
2019-05-07T08:31:54.730Z,4.90
2019-05-07T08:34:27.691Z,6.27
2019-05-07T08:36:57.147Z,3.03
2019-05-07T08:39:26.652Z,3.50
2019-05-07T08:41:56.154Z,4.53
2019-05-07T08:44:27.207Z,5.70
2019-05-07T08:46:58.224Z,4.83
2019-05-07T08:49:37.051Z,4.37
2019-05-07T08:52:03.033Z,5.53
2019-05-07T08:54:32.657Z,5.33
2019-05-07T08:57:02.799Z,4.97
2019-05-07T08:59:33.550Z,5.33
2019-05-07T09:02:03.245Z,7.37
2019-05-07T09:04:33.043Z,3.43
2019-05-07T09:07:02.944Z,6.93
2019-05-07T09:09:32.802Z,5.00
2019-05-07T09:12:03.087Z,5.40
2019-05-07T09:14:33.516Z,10.60
2019-05-07T09:17:03.134Z,7.17
2019-05-07T09:19:46.793Z,5.97
2019-05-07T09:22:18.138Z,5.97
2019-05-07T09:24:48.853Z,5.87
2019-05-07T09:27:22.147Z,6.07
2019-05-07T09:29:52.882Z,6.07
2019-05-07T09:32:24.044Z,7.63
2019-05-07T09:34:55.102Z,7.70
2019-05-07T09:37:26.243Z,4.60
2019-05-07T09:39:55.661Z,5.53
2019-05-07T09:42:25.110Z,6.40
2019-05-07T09:44:54.616Z,5.23
2019-05-07T09:47:24.221Z,6.13
2019-05-07T09:50:04.639Z,9.07
2019-05-07T09:52:31.929Z,7.50
2019-05-07T09:55:11.057Z,7.60
2019-05-07T09:57:34.754Z,4.20
2019-05-07T10:00:07.204Z,5.20
2019-05-07T10:02:38.561Z,7.27
2019-05-07T10:05:09.818Z,5.93
2019-05-07T10:07:39.329Z,9.17
2019-05-07T10:10:09.434Z,6.43
2019-05-07T10:12:42.086Z,8.77
2019-05-07T10:15:12.465Z,8.87
2019-05-07T10:17:43.700Z,4.93
2019-05-07T10:20:21.569Z,5.97
2019-05-07T10:22:46.505Z,5.60
2019-05-07T10:25:16.402Z,8.77
2019-05-07T10:27:46.097Z,7.20
2019-05-07T10:30:16.445Z,6.97
2019-05-07T10:32:46.141Z,7.63
2019-05-07T10:35:16.147Z,7.90
2019-05-07T10:37:45.669Z,4.33
2019-05-07T10:40:29.754Z,2.63
2019-05-07T10:43:01.251Z,3.30
2019-05-07T10:45:32.695Z,6.47
2019-05-07T10:48:06.521Z,6.03
2019-05-07T10:50:39.305Z,4.97
2019-05-07T10:53:09.026Z,5.87
2019-05-07T10:55:38.579Z,4.33
2019-05-07T10:58:08.357Z,5.47
2019-05-07T11:00:38.035Z,4.40
2019-05-07T11:03:09.206Z,5.03
2019-05-07T11:05:38.865Z,5.77
2019-05-07T11:08:09.561Z,4.47
2019-05-07T11:10:41.875Z,9.47
2019-05-07T11:13:12.832Z,5.60
2019-05-07T11:15:44.216Z,8.00
2019-05-07T11:18:15.514Z,4.57
2019-05-07T11:20:50.279Z,5.30
2019-05-07T11:23:16.798Z,6.30
2019-05-07T11:25:47.256Z,7.03
2019-05-07T11:28:16.820Z,9.60
2019-05-07T11:30:48.130Z,7.60
2019-05-07T11:33:17.777Z,7.70
2019-05-07T11:35:47.397Z,12.23
2019-05-07T11:38:21.593Z,4.87
2019-05-07T11:40:49.252Z,6.53
2019-05-07T11:43:22.130Z,3.93
2019-05-07T11:45:54.304Z,3.23
2019-05-07T11:48:25.756Z,5.27
2019-05-07T11:51:03.309Z,5.43
2019-05-07T11:53:32.553Z,3.10
2019-05-07T11:56:02.555Z,5.07
2019-05-07T11:58:32.688Z,8.47
2019-05-07T12:01:04.708Z,5.23
2019-05-07T12:03:34.487Z,3.63
2019-05-07T12:06:05.189Z,5.10
2019-05-07T12:08:42.528Z,3.40
2019-05-07T12:11:05.942Z,8.90
2019-05-07T12:13:35.648Z,7.53
2019-05-07T12:16:05.175Z,3.07
2019-05-07T12:18:34.702Z,4.73
2019-05-07T12:21:17.497Z,5.40
2019-05-07T12:23:35.321Z,3.70
2019-05-07T12:26:05.033Z,7.30
2019-05-07T12:28:34.562Z,4.43
2019-05-07T12:31:04.185Z,2.93
2019-05-07T12:33:35.292Z,5.87
2019-05-07T12:36:06.518Z,5.37
2019-05-07T12:38:36.060Z,3.97
2019-05-07T12:41:07.383Z,3.23
2019-05-07T12:43:36.903Z,2.50
2019-05-07T12:46:06.380Z,5.87
2019-05-07T12:48:35.975Z,6.37
2019-05-07T12:51:05.578Z,9.27
2019-05-07T12:53:36.792Z,7.93
2019-05-07T12:56:06.346Z,6.07
2019-05-07T12:58:35.937Z,5.43
2019-05-07T13:01:07.258Z,5.13
2019-05-07T13:03:38.696Z,4.23
2019-05-07T13:06:08.250Z,7.35
2019-05-07T13:09:24.986Z,4.70
2019-05-07T13:11:54.522Z,3.73
2019-05-07T13:14:24.076Z,3.57
2019-05-07T13:16:53.531Z,5.43
2019-05-07T13:19:25.901Z,3.37
2019-05-07T13:21:55.353Z,5.10
2019-05-07T13:24:24.863Z,4.23
2019-05-07T13:26:54.901Z,3.97
2019-05-07T13:29:24.447Z,3.30
2019-05-07T13:31:55.514Z,4.40
2019-05-07T13:34:42.797Z,4.92
2019-05-07T13:40:52.615Z,5.27
2019-05-07T13:43:23.568Z,3.53
2019-05-07T13:45:54.842Z,4.67
2019-05-07T13:48:25.827Z,3.20
2019-05-07T13:50:55.836Z,3.90
2019-05-07T13:53:25.585Z,4.87
2019-05-07T13:55:57.932Z,5.07
2019-05-07T13:58:27.500Z,4.03
2019-05-07T14:00:58.690Z,9.20
2019-05-07T14:03:28.273Z,5.83
2019-05-07T14:05:57.964Z,6.23
2019-05-07T14:08:32.056Z,5.33
2019-05-07T14:11:02.775Z,4.30
2019-05-07T14:13:33.797Z,4.27
2019-05-07T14:16:05.539Z,4.53
2019-05-07T14:18:39.197Z,4.97
2019-05-07T14:21:08.908Z,7.20
2019-05-07T14:23:38.253Z,3.03
2019-05-07T14:26:07.605Z,11.90
2019-05-07T14:28:42.309Z,6.87
2019-05-07T14:31:12.314Z,5.17
2019-05-07T14:33:43.763Z,5.47
2019-05-07T14:36:15.070Z,6.37
2019-05-07T14:38:46.619Z,5.10
2019-05-07T14:41:16.153Z,9.13
2019-05-07T14:43:48.908Z,5.83
2019-05-07T14:46:18.473Z,11.28
2019-05-07T14:48:47.874Z,4.53
2019-05-07T14:51:17.308Z,6.97
2019-05-07T14:53:46.701Z,9.77
2019-05-07T14:56:16.593Z,3.90
2019-05-07T14:58:46.047Z,8.80
2019-05-07T15:01:15.457Z,3.70
2019-05-07T15:03:45.078Z,6.20
2019-05-07T15:06:14.630Z,6.07
2019-05-07T15:08:44.061Z,4.70
2019-05-07T15:11:13.550Z,3.57
2019-05-07T15:13:43.032Z,7.00
2019-05-07T15:16:13.221Z,3.97
2019-05-07T15:18:44.469Z,7.53
2019-05-07T15:21:14.159Z,9.20
2019-05-07T15:23:43.661Z,6.17
2019-05-07T15:26:13.171Z,3.87
2019-05-07T15:28:44.413Z,5.23
2019-05-07T15:31:16.670Z,6.17
2019-05-07T15:33:46.092Z,8.00
2019-05-07T15:36:16.508Z,4.37
2019-05-07T15:38:45.931Z,6.07
2019-05-07T15:41:15.745Z,4.57
2019-05-07T15:43:46.220Z,3.80
2019-05-07T15:46:16.152Z,6.63
2019-05-07T15:48:45.792Z,5.77
2019-05-07T15:51:16.984Z,3.47
2019-05-07T15:53:48.369Z,6.70
2019-05-07T15:56:17.816Z,9.27
2019-05-07T15:58:47.410Z,4.60
2019-05-07T16:01:16.884Z,4.80
2019-05-07T16:03:47.242Z,8.17
2019-05-07T16:06:16.701Z,3.60
2019-05-07T16:08:49.170Z,5.37
2019-05-07T16:11:19.893Z,4.77
2019-05-07T16:13:52.448Z,4.07
2019-05-07T16:16:23.580Z,15.10
2019-05-07T16:18:54.775Z,6.43
2019-05-07T16:21:24.339Z,6.93
2019-05-07T16:23:54.832Z,5.53
2019-05-07T16:26:24.336Z,5.53
2019-05-07T16:28:53.774Z,7.63
2019-05-07T16:31:24.620Z,8.73
2019-05-07T16:33:54.329Z,5.30
2019-05-07T16:36:23.860Z,6.40
2019-05-07T16:38:53.345Z,4.13
2019-05-07T16:41:23.068Z,6.57
2019-05-07T16:43:52.550Z,6.33
2019-05-07T16:46:22.534Z,4.63
2019-05-07T16:48:52.083Z,5.00
2019-05-07T16:51:22.352Z,5.50
2019-05-07T16:53:52.529Z,4.20
2019-05-07T16:56:22.693Z,6.30
2019-05-07T16:58:54.065Z,6.67
2019-05-07T17:01:24.728Z,8.30
2019-05-07T17:03:55.995Z,7.00
2019-05-07T17:06:25.460Z,6.27
2019-05-07T17:08:56.718Z,7.57
2019-05-07T17:11:26.233Z,11.37
2019-05-07T17:13:55.820Z,8.13
2019-05-07T17:16:25.371Z,6.77
2019-05-07T17:18:54.806Z,8.73
2019-05-07T17:21:24.560Z,9.17
2019-05-07T17:23:54.017Z,9.13
2019-05-07T17:26:23.713Z,9.87
2019-05-07T17:28:53.262Z,7.57
2019-05-07T17:31:23.016Z,7.70
2019-05-07T17:33:52.650Z,7.77
2019-05-07T17:36:22.419Z,7.07
2019-05-07T17:38:52.218Z,10.13
2019-05-07T17:41:26.515Z,9.50
2019-05-07T17:43:52.943Z,12.87
2019-05-07T17:46:23.188Z,9.73
2019-05-07T17:48:52.762Z,10.80
2019-05-07T17:51:23.881Z,7.83
2019-05-07T17:53:59.350Z,11.13
2019-05-07T17:56:25.314Z,7.77
2019-05-07T17:58:54.788Z,9.57
2019-05-07T18:01:25.984Z,8.20
2019-05-07T18:03:55.589Z,11.60
2019-05-07T18:06:25.107Z,7.57
2019-05-07T18:08:54.590Z,10.50
2019-05-07T18:11:24.400Z,11.83
2019-05-07T18:13:55.971Z,10.20
2019-05-07T18:16:28.300Z,11.53
2019-05-07T18:18:57.741Z,62.57
2019-05-07T18:21:27.212Z,54.40
2019-05-07T18:23:56.621Z,52.20
2019-05-07T18:26:30.498Z,104.80
2019-05-07T18:28:57.261Z,12.60
2019-05-07T18:31:28.322Z,12.40
2019-05-07T18:33:59.635Z,11.07
2019-05-07T18:36:29.203Z,18.67
2019-05-07T18:38:58.586Z,16.90
2019-05-07T18:41:28.088Z,20.70
2019-05-07T18:44:08.881Z,28.60
2019-05-07T18:46:28.769Z,110.57
2019-05-07T18:48:58.223Z,118.33
2019-05-07T18:51:27.693Z,60.57
2019-05-07T18:53:57.088Z,54.97
2019-05-07T18:56:26.487Z,48.70
2019-05-07T18:58:55.846Z,120.63
2019-05-07T19:01:26.963Z,95.67
2019-05-07T19:03:57.102Z,49.70
2019-05-07T19:06:26.497Z,80.37
2019-05-07T19:08:55.945Z,68.83
2019-05-07T19:11:25.407Z,35.33
2019-05-07T19:13:56.135Z,81.23
2019-05-07T19:16:25.794Z,45.83
2019-05-07T19:18:55.225Z,43.90
2019-05-07T19:21:24.580Z,44.30
2019-05-07T19:23:54.016Z,29.43
2019-05-07T19:26:23.420Z,17.20
2019-05-07T19:28:52.862Z,19.30
2019-05-07T19:31:22.258Z,16.83
2019-05-07T19:33:52.789Z,20.03
2019-05-07T19:36:22.406Z,54.57
2019-05-07T19:38:53.068Z,128.70
2019-05-07T19:41:22.531Z,145.10
2019-05-07T19:43:52.765Z,108.17
2019-05-07T19:46:22.938Z,156.60
2019-05-07T19:48:53.611Z,178.57
2019-05-07T19:51:23.070Z,74.70
2019-05-07T19:53:52.669Z,68.47
2019-05-07T19:56:24.040Z,47.40
2019-05-07T19:58:53.661Z,46.37
2019-05-07T20:01:24.789Z,39.73
2019-05-07T20:03:54.281Z,37.07
2019-05-07T20:06:25.139Z,30.93
2019-05-07T20:09:08.114Z,16.43
2019-05-07T20:11:27.446Z,25.67
2019-05-07T20:13:56.836Z,45.00
2019-05-07T20:16:26.407Z,91.20
2019-05-07T20:18:55.833Z,89.33
2019-05-07T20:21:38.857Z,68.47
2019-05-07T20:24:08.402Z,41.23
2019-05-07T20:26:37.784Z,35.93
2019-05-07T20:29:07.244Z,82.63
2019-05-07T20:31:36.665Z,78.73
2019-05-07T20:34:06.445Z,74.67
2019-05-07T20:36:35.863Z,17.30
2019-05-07T20:39:07.295Z,14.53
2019-05-07T20:41:38.507Z,15.27
2019-05-07T20:44:07.925Z,17.83
2019-05-07T20:46:37.565Z,27.73
2019-05-07T20:49:06.979Z,26.43
2019-05-07T20:51:36.482Z,15.10
2019-05-07T20:54:07.665Z,22.83
2019-05-07T20:56:38.726Z,20.47
2019-05-07T20:59:08.251Z,15.87
2019-05-07T21:01:37.714Z,16.80
2019-05-07T21:04:07.171Z,20.87
2019-05-07T21:06:36.765Z,15.57
2019-05-07T21:09:08.343Z,13.37
2019-05-07T21:11:38.248Z,11.63
2019-05-07T21:14:07.778Z,13.93
2019-05-07T21:16:37.261Z,13.53
2019-05-07T21:19:06.772Z,29.53
2019-05-07T21:21:36.154Z,12.67
2019-05-07T21:24:05.837Z,9.30
2019-05-07T21:26:35.555Z,14.40
2019-05-07T21:29:05.735Z,16.47
2019-05-07T21:31:35.133Z,11.30
2019-05-07T21:34:04.736Z,9.97
2019-05-07T21:36:34.205Z,9.10
2019-05-07T21:39:05.617Z,8.33
2019-05-07T21:41:35.181Z,11.13
2019-05-07T21:44:04.646Z,12.10
2019-05-07T21:46:34.036Z,10.00
2019-05-07T21:49:03.404Z,8.13
2019-05-07T21:51:32.864Z,14.73
2019-05-07T21:54:04.052Z,11.30
2019-05-07T21:56:35.290Z,9.83
2019-05-07T21:59:06.471Z,13.77
2019-05-07T22:01:37.658Z,22.93
2019-05-07T22:04:07.179Z,26.90
2019-05-07T22:06:36.740Z,19.50
2019-05-07T22:09:07.596Z,20.73
2019-05-07T22:11:38.023Z,10.57
2019-05-07T22:14:07.531Z,13.70
2019-05-07T22:16:37.113Z,20.17
2019-05-07T22:19:06.760Z,12.90
2019-05-07T22:21:36.206Z,12.37
2019-05-07T22:24:05.883Z,17.97
2019-05-07T22:26:35.494Z,14.43
2019-05-07T22:29:05.075Z,16.17
2019-05-07T22:31:36.356Z,128.17
2019-05-07T22:34:07.551Z,290.80
2019-05-07T22:36:37.422Z,234.43
2019-05-07T22:39:08.921Z,344.50
2019-05-07T22:41:42.315Z,274.93
2019-05-07T22:44:12.114Z,69.27
2019-05-07T22:46:42.858Z,42.10
2019-05-07T22:49:12.464Z,39.67
2019-05-07T22:51:41.856Z,24.90
2019-05-07T22:54:11.892Z,18.63
2019-05-07T22:56:43.127Z,17.27
2019-05-07T22:59:14.715Z,12.87
2019-05-07T23:01:43.993Z,15.40
2019-05-07T23:04:13.576Z,12.00
2019-05-07T23:06:43.712Z,15.13
2019-05-07T23:09:13.497Z,24.23
2019-05-07T23:11:43.017Z,29.83
2019-05-07T23:14:12.531Z,30.87
2019-05-07T23:16:43.087Z,29.97
2019-05-07T23:19:14.080Z,18.30
2019-05-07T23:21:44.865Z,23.90
2019-05-07T23:24:14.287Z,22.00
2019-05-07T23:26:49.881Z,23.83
2019-05-07T23:29:14.978Z,18.97
2019-05-07T23:31:44.458Z,14.90
2019-05-07T23:34:14.022Z,52.40
2019-05-07T23:36:43.577Z,68.53
2019-05-07T23:39:14.649Z,258.77
2019-05-07T23:41:45.800Z,122.73
2019-05-07T23:44:16.775Z,64.70
2019-05-07T23:46:46.455Z,23.57
2019-05-07T23:49:16.234Z,24.87
2019-05-07T23:51:45.825Z,21.33
2019-05-07T23:54:16.283Z,31.43
2019-05-07T23:56:46.811Z,23.87
2019-05-07T23:59:16.188Z,27.57
